createdAt,value
2018-05-23T00:00:06.585Z,6.13
2018-05-23T00:02:34.137Z,4.27
2018-05-23T00:05:01.639Z,4.13
2018-05-23T00:07:29.157Z,5.63
2018-05-23T00:09:56.661Z,3.93
2018-05-23T00:12:24.158Z,3.90
2018-05-23T00:14:51.723Z,3.87
2018-05-23T00:17:19.213Z,7.67
2018-05-23T00:19:46.714Z,7.13
2018-05-23T00:22:14.201Z,3.90
2018-05-23T00:24:41.688Z,4.47
2018-05-23T00:27:09.665Z,6.00
2018-05-23T00:29:37.155Z,5.07
2018-05-23T00:32:04.670Z,4.83
2018-05-23T00:34:32.442Z,5.17
2018-05-23T00:37:00.237Z,4.50
2018-05-23T00:39:27.755Z,3.93
2018-05-23T00:41:55.254Z,4.00
2018-05-23T00:44:23.215Z,3.47
2018-05-23T00:46:51.847Z,4.03
2018-05-23T00:49:19.557Z,3.40
2018-05-23T00:51:47.340Z,2.90
2018-05-23T00:54:14.856Z,5.20
2018-05-23T00:56:42.490Z,4.50
2018-05-23T00:59:10.035Z,4.10
2018-05-23T01:01:37.534Z,3.90
2018-05-23T01:04:05.045Z,5.97
2018-05-23T01:06:32.536Z,3.00
2018-05-23T01:09:00.046Z,2.77
2018-05-23T01:11:27.586Z,3.87
2018-05-23T01:13:55.091Z,3.13
2018-05-23T01:16:22.582Z,3.17
2018-05-23T01:18:50.096Z,3.27
2018-05-23T01:21:17.617Z,3.47
2018-05-23T01:23:45.125Z,2.53
2018-05-23T01:26:12.651Z,3.27
2018-05-23T01:28:40.222Z,2.87
2018-05-23T01:31:07.799Z,3.33
2018-05-23T01:33:35.314Z,4.40
2018-05-23T01:36:02.822Z,3.00
2018-05-23T01:38:30.653Z,3.50
2018-05-23T01:40:58.149Z,2.97
2018-05-23T01:43:25.729Z,4.07
2018-05-23T01:45:53.224Z,4.07
2018-05-23T01:48:20.799Z,4.03
2018-05-23T01:50:48.347Z,3.83
2018-05-23T01:53:15.842Z,4.83
2018-05-23T01:55:43.382Z,4.40
2018-05-23T01:58:11.105Z,5.23
2018-05-23T02:00:38.625Z,4.33
2018-05-23T02:03:06.257Z,4.07
2018-05-23T02:05:33.797Z,4.80
2018-05-23T02:08:01.290Z,3.70
2018-05-23T02:10:28.809Z,3.87
2018-05-23T02:12:56.343Z,3.30
2018-05-23T02:15:23.844Z,3.97
2018-05-23T02:17:51.346Z,5.40
2018-05-23T02:20:18.859Z,4.77
2018-05-23T02:22:46.437Z,3.63
2018-05-23T02:25:13.934Z,4.23
2018-05-23T02:27:41.458Z,5.00
2018-05-23T02:30:08.985Z,4.97
2018-05-23T02:32:36.499Z,4.73
2018-05-23T02:35:04.175Z,4.83
2018-05-23T02:37:31.713Z,6.53
2018-05-23T02:39:59.222Z,5.40
2018-05-23T02:42:26.750Z,5.47
2018-05-23T02:44:54.253Z,5.73
2018-05-23T02:47:21.765Z,7.30
2018-05-23T02:49:49.266Z,9.57
2018-05-23T02:52:16.779Z,6.07
2018-05-23T02:54:44.303Z,9.97
2018-05-23T02:57:11.870Z,7.00
2018-05-23T02:59:39.401Z,6.73
2018-05-23T03:02:06.909Z,5.93
2018-05-23T03:04:34.477Z,6.23
2018-05-23T03:07:02.125Z,7.00
2018-05-23T03:09:29.634Z,7.17
2018-05-23T03:11:57.143Z,6.67
2018-05-23T03:14:24.641Z,6.27
2018-05-23T03:16:52.143Z,6.63
2018-05-23T03:19:19.702Z,6.23
2018-05-23T03:21:47.209Z,6.57
2018-05-23T03:24:14.712Z,7.00
2018-05-23T03:26:42.239Z,7.67
2018-05-23T03:29:09.891Z,9.20
2018-05-23T03:31:37.406Z,8.10
2018-05-23T03:34:04.909Z,10.23
2018-05-23T03:36:32.606Z,7.57
2018-05-23T03:39:00.148Z,8.87
2018-05-23T03:41:27.676Z,8.77
2018-05-23T03:43:55.177Z,9.23
2018-05-23T03:46:22.705Z,9.70
2018-05-23T03:48:50.257Z,10.17
2018-05-23T03:51:17.755Z,10.90
2018-05-23T03:53:45.267Z,10.70
2018-05-23T03:56:12.843Z,11.47
2018-05-23T03:58:40.362Z,9.40
2018-05-23T04:01:27.735Z,8.40
2018-05-23T04:04:00.998Z,14.67
2018-05-23T04:06:34.393Z,8.93
2018-05-23T04:09:01.991Z,10.27
2018-05-23T04:11:29.555Z,20.00
2018-05-23T04:13:57.065Z,13.00
2018-05-23T04:16:24.565Z,11.90
2018-05-23T04:18:52.066Z,13.57
2018-05-23T04:21:19.630Z,15.50
2018-05-23T04:23:47.151Z,12.17
2018-05-23T04:26:14.674Z,14.13
2018-05-23T04:28:42.223Z,10.10
2018-05-23T04:31:09.717Z,14.20
2018-05-23T04:33:37.235Z,12.10
2018-05-23T04:36:04.808Z,11.63
2018-05-23T04:38:32.383Z,11.77
2018-05-23T04:41:00.330Z,12.63
2018-05-23T04:43:27.843Z,13.13
2018-05-23T04:45:55.341Z,11.33
2018-05-23T04:48:22.854Z,13.93
2018-05-23T04:50:50.372Z,16.60
2018-05-23T04:53:17.885Z,15.20
2018-05-23T04:55:45.391Z,14.13
2018-05-23T04:58:12.898Z,15.27
2018-05-23T05:00:40.405Z,15.30
2018-05-23T05:03:07.914Z,14.53
2018-05-23T05:05:35.414Z,16.07
2018-05-23T05:08:03.911Z,14.30
2018-05-23T05:10:31.471Z,14.17
2018-05-23T05:12:59.494Z,14.80
2018-05-23T05:15:27.028Z,15.90
2018-05-23T05:17:54.582Z,14.73
2018-05-23T05:20:22.114Z,15.13
2018-05-23T05:22:49.652Z,15.47
2018-05-23T05:25:17.161Z,15.33
2018-05-23T05:27:44.719Z,20.47
2018-05-23T05:30:12.239Z,19.60
2018-05-23T05:32:39.783Z,18.63
2018-05-23T05:35:07.321Z,17.40
2018-05-23T05:37:34.846Z,17.10
2018-05-23T05:40:02.370Z,19.67
2018-05-23T05:42:29.915Z,17.83
2018-05-23T05:44:57.496Z,17.10
2018-05-23T05:47:25.010Z,18.53
2018-05-23T05:49:52.517Z,18.20
2018-05-23T05:52:20.026Z,21.77
2018-05-23T05:54:47.529Z,20.30
2018-05-23T05:57:15.055Z,18.97
2018-05-23T05:59:42.570Z,21.53
2018-05-23T06:02:10.121Z,19.90
2018-05-23T06:04:37.642Z,21.37
2018-05-23T06:07:05.166Z,22.27
2018-05-23T06:09:32.744Z,21.77
2018-05-23T06:12:00.254Z,23.63
2018-05-23T06:14:27.775Z,24.67
2018-05-23T06:16:55.752Z,21.20
2018-05-23T06:19:23.254Z,22.10
2018-05-23T06:21:50.777Z,21.40
2018-05-23T06:24:18.281Z,22.77
2018-05-23T06:26:45.816Z,26.03
2018-05-23T06:29:13.341Z,21.80
2018-05-23T06:31:40.859Z,25.40
2018-05-23T06:34:08.385Z,26.03
2018-05-23T06:36:35.911Z,23.53
2018-05-23T06:39:03.539Z,21.93
2018-05-23T06:41:31.184Z,27.87
2018-05-23T06:43:58.699Z,25.57
2018-05-23T06:46:26.212Z,26.33
2018-05-23T06:48:53.764Z,29.43
2018-05-23T06:51:21.261Z,24.07
2018-05-23T06:53:48.778Z,24.90
2018-05-23T06:56:16.287Z,25.37
2018-05-23T06:58:43.806Z,24.53
2018-05-23T07:01:11.313Z,25.07
2018-05-23T07:03:38.817Z,29.53
2018-05-23T07:06:06.335Z,27.53
2018-05-23T07:08:33.832Z,24.70
2018-05-23T07:11:01.426Z,27.93
2018-05-23T07:13:28.964Z,25.93
2018-05-23T07:15:56.495Z,26.23
2018-05-23T07:18:24.002Z,29.50
2018-05-23T07:20:51.562Z,29.97
2018-05-23T07:23:19.068Z,29.27
2018-05-23T07:25:46.574Z,27.97
2018-05-23T07:28:14.098Z,29.10
2018-05-23T07:30:41.605Z,25.30
2018-05-23T07:33:09.115Z,27.30
2018-05-23T07:35:36.632Z,25.27
2018-05-23T07:38:04.181Z,28.10
2018-05-23T07:40:31.694Z,27.90
2018-05-23T07:42:59.229Z,25.17
2018-05-23T07:45:26.761Z,23.10
2018-05-23T07:47:54.296Z,24.73
2018-05-23T07:50:21.806Z,24.73
2018-05-23T07:52:49.366Z,27.23
2018-05-23T07:55:16.912Z,28.20
2018-05-23T07:57:44.818Z,27.10
2018-05-23T08:00:12.392Z,22.50
2018-05-23T08:02:39.912Z,21.53
2018-05-23T08:05:07.426Z,25.63
2018-05-23T08:07:34.946Z,23.93
2018-05-23T08:10:02.471Z,26.67
2018-05-23T08:12:29.982Z,23.50
2018-05-23T08:14:57.485Z,23.53
2018-05-23T08:17:25.015Z,22.30
2018-05-23T08:19:52.536Z,23.20
2018-05-23T08:22:20.254Z,19.87
2018-05-23T08:24:48.029Z,20.33
2018-05-23T08:27:15.704Z,16.67
2018-05-23T08:29:43.651Z,17.50
2018-05-23T08:32:11.531Z,22.70
2018-05-23T08:34:39.326Z,25.33
2018-05-23T08:37:07.058Z,19.30
2018-05-23T08:39:34.807Z,16.80
2018-05-23T08:42:02.483Z,15.97
2018-05-23T08:44:30.344Z,17.30
2018-05-23T08:46:58.079Z,16.00
2018-05-23T08:49:25.775Z,19.17
2018-05-23T08:51:53.527Z,14.63
2018-05-23T08:54:21.401Z,15.73
2018-05-23T08:56:49.248Z,21.00
2018-05-23T08:59:16.998Z,18.93
2018-05-23T09:01:44.763Z,16.83
2018-05-23T09:04:12.513Z,15.53
2018-05-23T09:06:40.184Z,18.30
2018-05-23T09:09:07.890Z,20.83
2018-05-23T09:11:35.617Z,25.73
2018-05-23T09:14:03.327Z,21.20
2018-05-23T09:16:31.118Z,23.93
2018-05-23T09:18:58.884Z,21.70
2018-05-23T09:21:26.604Z,18.03
2018-05-23T09:23:54.394Z,17.10
2018-05-23T09:26:22.162Z,19.20
2018-05-23T09:28:49.894Z,16.90
2018-05-23T09:31:17.589Z,18.50
2018-05-23T09:33:45.293Z,19.90
2018-05-23T09:36:13.144Z,18.90
2018-05-23T09:38:40.969Z,15.97
2018-05-23T09:41:08.647Z,14.33
2018-05-23T09:43:36.376Z,16.87
2018-05-23T09:46:04.152Z,10.37
2018-05-23T09:48:32.129Z,11.23
2018-05-23T09:50:59.791Z,10.63
2018-05-23T09:53:27.487Z,11.80
2018-05-23T09:55:55.226Z,9.30
2018-05-23T09:58:22.991Z,13.97
2018-05-23T10:00:50.731Z,14.03
2018-05-23T10:03:18.453Z,12.67
2018-05-23T10:05:46.196Z,15.20
2018-05-23T10:08:13.918Z,12.10
2018-05-23T10:10:41.611Z,13.43
2018-05-23T10:13:09.286Z,10.70
2018-05-23T10:15:36.989Z,9.03
2018-05-23T10:18:04.665Z,11.77
2018-05-23T10:20:32.352Z,12.07
2018-05-23T10:23:00.049Z,12.33
2018-05-23T10:25:27.790Z,10.60
2018-05-23T10:27:55.478Z,12.90
2018-05-23T10:30:23.161Z,10.93
2018-05-23T10:32:51.020Z,12.40
2018-05-23T10:35:18.709Z,12.27
2018-05-23T10:37:46.428Z,13.80
2018-05-23T10:40:14.111Z,12.03
2018-05-23T10:42:41.788Z,18.47
2018-05-23T10:45:09.485Z,12.53
2018-05-23T10:47:37.180Z,14.10
2018-05-23T10:50:04.857Z,12.27
2018-05-23T10:52:32.601Z,9.67
2018-05-23T10:55:00.284Z,10.30
2018-05-23T10:57:27.976Z,10.13
2018-05-23T10:59:55.698Z,12.43
2018-05-23T11:02:23.609Z,10.73
2018-05-23T11:04:51.320Z,11.70
2018-05-23T11:07:19.008Z,9.47
2018-05-23T11:09:46.668Z,10.07
2018-05-23T11:12:14.342Z,8.47
2018-05-23T11:14:42.048Z,9.10
2018-05-23T11:17:09.747Z,9.97
2018-05-23T11:19:37.559Z,7.17
2018-05-23T11:22:05.096Z,8.20
2018-05-23T11:24:32.786Z,8.80
2018-05-23T11:27:00.429Z,8.87
2018-05-23T11:29:28.102Z,9.17
2018-05-23T11:31:55.765Z,10.30
2018-05-23T11:34:23.478Z,10.00
2018-05-23T11:36:51.200Z,9.87
2018-05-23T11:39:18.921Z,12.13
2018-05-23T11:41:46.567Z,11.97
2018-05-23T11:44:14.341Z,14.97
2018-05-23T11:46:42.162Z,11.27
2018-05-23T11:49:09.853Z,12.43
2018-05-23T11:51:37.551Z,9.63
2018-05-23T11:54:05.256Z,9.63
2018-05-23T11:56:32.993Z,12.53
2018-05-23T11:59:00.650Z,8.87
2018-05-23T12:01:28.374Z,10.70
2018-05-23T12:03:56.014Z,9.77
2018-05-23T12:06:23.663Z,8.53
2018-05-23T12:08:51.410Z,8.87
2018-05-23T12:11:19.115Z,9.23
2018-05-23T12:13:46.839Z,8.73
2018-05-23T12:16:14.757Z,9.03
2018-05-23T12:18:42.531Z,9.70
2018-05-23T12:21:10.256Z,8.53
2018-05-23T12:23:37.935Z,7.47
2018-05-23T12:26:05.671Z,7.10
2018-05-23T12:28:33.376Z,6.67
2018-05-23T12:31:01.078Z,7.70
2018-05-23T12:33:28.724Z,6.40
2018-05-23T12:35:56.406Z,7.83
2018-05-23T12:38:24.069Z,7.57
2018-05-23T12:40:51.850Z,10.50
2018-05-23T12:43:19.578Z,7.00
2018-05-23T12:45:47.236Z,9.93
2018-05-23T12:48:14.976Z,7.60
2018-05-23T12:50:42.729Z,6.27
2018-05-23T12:53:10.392Z,6.67
2018-05-23T12:55:38.056Z,7.30
2018-05-23T12:58:05.695Z,6.67
2018-05-23T13:00:33.417Z,7.27
2018-05-23T13:03:01.104Z,6.83
2018-05-23T13:05:28.856Z,6.60
2018-05-23T13:07:56.601Z,7.03
2018-05-23T13:10:24.328Z,8.27
2018-05-23T13:12:52.108Z,8.87
2018-05-23T13:15:19.824Z,8.03
2018-05-23T13:17:47.540Z,7.43
2018-05-23T13:20:15.302Z,10.70
2018-05-23T13:25:15.008Z,8.20
2018-05-23T13:27:42.713Z,8.37
2018-05-23T13:30:10.451Z,17.00
2018-05-23T13:32:37.978Z,11.97
2018-05-23T13:35:05.504Z,10.53
2018-05-23T13:37:33.026Z,10.07
2018-05-23T13:40:00.641Z,8.40
2018-05-23T13:42:28.163Z,12.70
2018-05-23T13:44:55.712Z,10.03
2018-05-23T13:47:23.220Z,12.47
2018-05-23T13:49:50.741Z,10.17
2018-05-23T13:52:18.244Z,11.47
2018-05-23T13:54:45.740Z,12.83
2018-05-23T13:57:13.238Z,8.37
2018-05-23T13:59:40.733Z,6.93
2018-05-23T14:02:08.268Z,11.77
2018-05-23T14:04:35.778Z,10.93
2018-05-23T14:07:03.275Z,11.80
2018-05-23T14:09:30.774Z,8.50
2018-05-23T14:11:58.261Z,6.03
2018-05-23T14:14:25.931Z,8.10
2018-05-23T14:16:53.480Z,7.63
2018-05-23T14:19:21.011Z,8.83
2018-05-23T14:21:48.509Z,6.37
2018-05-23T14:24:15.998Z,7.03
2018-05-23T14:26:43.497Z,8.20
2018-05-23T14:29:11.006Z,7.90
2018-05-23T14:31:38.514Z,8.80
2018-05-23T14:34:06.020Z,5.63
2018-05-23T14:36:33.507Z,9.83
2018-05-23T14:39:01.009Z,6.00
2018-05-23T14:41:28.737Z,8.70
2018-05-23T14:43:56.230Z,7.50
2018-05-23T14:46:23.753Z,6.37
2018-05-23T14:48:51.297Z,6.63
2018-05-23T14:51:19.057Z,6.67
2018-05-23T14:53:46.659Z,6.53
2018-05-23T14:56:14.218Z,5.07
2018-05-23T14:58:42.014Z,3.40
2018-05-23T15:01:09.815Z,3.43
2018-05-23T15:03:38.136Z,4.70
2018-05-23T15:06:05.774Z,4.23
2018-05-23T15:08:33.284Z,5.57
2018-05-23T15:11:01.516Z,1.90
2018-05-23T15:13:29.031Z,2.57
2018-05-23T15:15:56.775Z,1.83
2018-05-23T15:18:24.572Z,1.87
2018-05-23T15:20:52.486Z,2.50
2018-05-23T15:23:20.039Z,3.20
2018-05-23T15:25:47.582Z,3.40
2018-05-23T15:28:15.091Z,3.57
2018-05-23T15:30:42.614Z,2.87
2018-05-23T15:33:10.134Z,3.07
2018-05-23T15:35:37.805Z,3.90
2018-05-23T15:38:05.375Z,5.77
2018-05-23T15:40:32.941Z,3.50
2018-05-23T15:43:00.726Z,3.73
2018-05-23T15:45:28.294Z,2.90
2018-05-23T15:47:55.826Z,2.97
2018-05-23T15:50:23.358Z,5.50
2018-05-23T15:52:51.141Z,3.50
2018-05-23T15:55:18.702Z,3.60
2018-05-23T15:57:46.638Z,5.10
2018-05-23T16:00:14.484Z,2.03
2018-05-23T16:02:42.108Z,2.10
2018-05-23T16:05:09.628Z,2.50
2018-05-23T16:07:37.133Z,2.90
2018-05-23T16:10:04.736Z,2.90
2018-05-23T16:12:32.556Z,1.87
2018-05-23T16:15:00.075Z,3.87
2018-05-23T16:17:27.583Z,2.23
2018-05-23T16:19:55.070Z,1.87
2018-05-23T16:22:22.577Z,2.10
2018-05-23T16:24:50.450Z,2.10
2018-05-23T16:27:17.957Z,3.30
2018-05-23T16:29:45.445Z,3.63
2018-05-23T16:32:12.964Z,2.47
2018-05-23T16:34:40.494Z,3.37
2018-05-23T16:37:08.003Z,3.80
2018-05-23T16:39:35.510Z,4.63
2018-05-23T16:42:03.220Z,5.03
2018-05-23T16:44:30.899Z,3.17
2018-05-23T16:46:58.358Z,3.93
2018-05-23T16:49:25.863Z,4.00
2018-05-23T16:51:53.375Z,4.20
2018-05-23T16:54:20.890Z,2.27
2018-05-23T16:56:48.448Z,5.03
2018-05-23T16:59:15.962Z,2.20
2018-05-23T17:01:43.492Z,3.33
2018-05-23T17:04:11.009Z,3.30
2018-05-23T17:06:38.505Z,3.27
2018-05-23T17:09:06.027Z,3.60
2018-05-23T17:11:33.519Z,3.53
2018-05-23T17:14:01.048Z,3.63
2018-05-23T17:16:28.541Z,3.70
2018-05-23T17:18:56.040Z,3.43
2018-05-23T17:21:23.515Z,2.20
2018-05-23T17:23:51.001Z,2.30
2018-05-23T17:26:18.490Z,2.07
2018-05-23T17:28:46.047Z,2.57
2018-05-23T17:31:13.545Z,2.60
2018-05-23T17:33:41.083Z,2.07
2018-05-23T17:36:08.594Z,3.83
2018-05-23T17:38:36.111Z,3.33
2018-05-23T17:41:03.654Z,4.50
2018-05-23T17:43:31.182Z,2.00
2018-05-23T17:45:58.713Z,2.97
2018-05-23T17:48:26.251Z,4.50
2018-05-23T17:50:53.748Z,2.73
2018-05-23T17:53:21.277Z,3.00
2018-05-23T17:55:48.785Z,3.13
2018-05-23T17:58:16.290Z,3.17
2018-05-23T18:00:43.842Z,3.73
2018-05-23T18:03:11.385Z,2.43
2018-05-23T18:05:38.904Z,3.30
2018-05-23T18:08:06.436Z,3.13
2018-05-23T18:10:33.961Z,2.30
2018-05-23T18:13:01.489Z,3.27
2018-05-23T18:15:28.994Z,4.43
2018-05-23T18:17:56.497Z,3.57
2018-05-23T18:20:24.045Z,3.67
2018-05-23T18:22:51.526Z,2.97
2018-05-23T18:25:19.025Z,5.40
2018-05-23T18:27:46.518Z,2.87
2018-05-23T18:30:14.025Z,3.07
2018-05-23T18:32:41.573Z,3.40
2018-05-23T18:35:09.083Z,5.63
2018-05-23T18:37:36.535Z,3.17
2018-05-23T18:40:04.055Z,4.00
2018-05-23T18:42:31.551Z,3.60
2018-05-23T18:44:59.057Z,2.93
2018-05-23T18:47:26.566Z,3.03
2018-05-23T18:49:54.061Z,4.17
2018-05-23T18:52:21.573Z,3.03
2018-05-23T18:54:49.076Z,3.30
2018-05-23T18:57:16.579Z,3.17
2018-05-23T18:59:44.121Z,3.67
2018-05-23T19:02:11.625Z,4.87
2018-05-23T19:04:39.170Z,3.30
2018-05-23T19:07:06.644Z,6.07
2018-05-23T19:09:34.168Z,4.30
2018-05-23T19:12:01.680Z,4.57
2018-05-23T19:14:29.205Z,3.97
2018-05-23T19:16:56.675Z,5.90
2018-05-23T19:19:24.186Z,5.70
2018-05-23T19:21:51.690Z,19.57
2018-05-23T19:24:19.205Z,3.53
2018-05-23T19:26:46.665Z,3.97
2018-05-23T19:29:14.117Z,3.33
2018-05-23T19:31:41.616Z,3.97
2018-05-23T19:34:09.180Z,4.53
2018-05-23T19:36:36.937Z,3.13
2018-05-23T19:39:04.518Z,4.03
2018-05-23T19:41:32.070Z,3.87
2018-05-23T19:43:59.608Z,3.67
2018-05-23T19:46:27.125Z,5.90
2018-05-23T19:48:54.657Z,5.17
2018-05-23T19:51:22.149Z,4.27
2018-05-23T19:53:49.598Z,6.10
2018-05-23T19:56:17.097Z,3.97
2018-05-23T19:58:44.776Z,4.17
2018-05-23T20:01:12.476Z,3.93
2018-05-23T20:03:40.184Z,5.13
2018-05-23T20:06:09.198Z,5.63
2018-05-23T20:08:36.944Z,5.60
2018-05-23T20:11:04.565Z,3.87
2018-05-23T20:13:32.248Z,4.73
2018-05-23T20:15:59.952Z,3.83
2018-05-23T20:18:27.734Z,5.90
2018-05-23T20:20:55.458Z,5.30
2018-05-23T20:23:23.112Z,4.50
2018-05-23T20:25:50.832Z,3.47
2018-05-23T20:28:18.339Z,4.17
2018-05-23T20:30:45.824Z,3.77
2018-05-23T20:33:13.279Z,4.40
2018-05-23T20:35:40.797Z,4.73
2018-05-23T20:38:08.320Z,9.20
2018-05-23T20:40:35.931Z,9.97
2018-05-23T20:43:03.392Z,5.13
2018-05-23T20:45:30.895Z,5.43
2018-05-23T20:47:58.399Z,9.10
2018-05-23T20:50:25.853Z,5.90
2018-05-23T20:52:53.333Z,5.30
2018-05-23T20:55:20.820Z,5.20
2018-05-23T20:57:48.281Z,5.03
2018-05-23T21:00:15.733Z,4.80
2018-05-23T21:02:43.237Z,3.93
2018-05-23T21:05:10.767Z,5.43
2018-05-23T21:07:38.156Z,5.47
2018-05-23T21:10:05.630Z,4.30
2018-05-23T21:12:33.555Z,3.80
2018-05-23T21:15:01.030Z,4.70
2018-05-23T21:17:28.493Z,4.60
2018-05-23T21:19:55.984Z,5.67
2018-05-23T21:22:23.479Z,4.80
2018-05-23T21:24:50.922Z,5.87
2018-05-23T21:27:18.391Z,5.77
2018-05-23T21:29:45.853Z,8.50
2018-05-23T21:32:13.321Z,7.97
2018-05-23T21:34:40.839Z,5.57
2018-05-23T21:37:08.310Z,8.07
2018-05-23T21:39:35.784Z,8.83
2018-05-23T21:42:03.259Z,7.23
2018-05-23T21:44:30.761Z,6.53
2018-05-23T21:46:58.205Z,9.37
2018-05-23T21:49:25.672Z,7.47
2018-05-23T21:51:53.183Z,7.07
2018-05-23T21:54:20.649Z,8.40
2018-05-23T21:56:48.144Z,11.17
2018-05-23T21:59:15.674Z,7.90
2018-05-23T22:01:43.225Z,7.27
2018-05-23T22:04:10.681Z,8.20
2018-05-23T22:06:38.141Z,8.63
2018-05-23T22:09:05.611Z,7.10
2018-05-23T22:11:33.092Z,8.80
2018-05-23T22:14:00.546Z,9.93
2018-05-23T22:16:28.055Z,8.57
2018-05-23T22:18:55.530Z,6.57
2018-05-23T22:21:22.978Z,8.80
2018-05-23T22:23:50.479Z,8.90
2018-05-23T22:26:17.940Z,6.87
2018-05-23T22:28:45.387Z,8.33
2018-05-23T22:31:12.837Z,7.33
2018-05-23T22:33:40.327Z,7.97
2018-05-23T22:36:07.850Z,9.07
2018-05-23T22:38:35.315Z,9.13
2018-05-23T22:41:02.833Z,10.63
2018-05-23T22:43:30.328Z,12.67
2018-05-23T22:45:57.819Z,9.47
2018-05-23T22:48:25.349Z,10.03
2018-05-23T22:50:52.864Z,8.53
2018-05-23T22:53:20.325Z,10.17
2018-05-23T22:55:47.899Z,9.93
2018-05-23T22:58:15.353Z,9.70
2018-05-23T23:00:42.831Z,11.00
2018-05-23T23:03:10.340Z,11.87
2018-05-23T23:05:37.885Z,10.90
2018-05-23T23:08:05.393Z,11.83
2018-05-23T23:10:32.935Z,15.13
2018-05-23T23:13:00.526Z,12.90
2018-05-23T23:15:28.041Z,15.40
2018-05-23T23:17:55.548Z,11.23
2018-05-23T23:20:23.102Z,12.07
2018-05-23T23:22:50.618Z,11.17
2018-05-23T23:25:18.136Z,12.53
2018-05-23T23:27:45.711Z,12.80
2018-05-23T23:30:13.218Z,12.73
2018-05-23T23:32:40.728Z,11.90
2018-05-23T23:35:08.238Z,9.97
2018-05-23T23:37:35.757Z,12.57
2018-05-23T23:40:03.334Z,10.77
2018-05-23T23:42:30.844Z,12.13
2018-05-23T23:44:58.355Z,13.20
2018-05-23T23:47:25.843Z,9.97
2018-05-23T23:49:53.359Z,12.80
2018-05-23T23:52:20.968Z,14.53
2018-05-23T23:54:48.465Z,11.13
2018-05-23T23:57:16.059Z,13.03
2018-05-23T23:59:43.556Z,11.10
